Time;durP1;ratioP1;P1;durP2;ratioP2;P2;SDS_P1;SDS_P2;PMS_P1;PMS_P2;Temp;Humidity;BMP_temperature;BMP_pressure;BME280_temperature;BME280_humidity;BME280_pressure;Samples;Min_cycle;Max_cycle;Signal;HPM_P1;HPM_P2
2024/01/21 09:11:00;;;;;;;2.78;2.00;;;17.80;51.90;;;;;;5276696;23;20244;-82
2024/01/21 09:13:58;;;;;;;2.33;2.10;;;17.90;52.10;;;;;;4940732;29;20200;-86
2024/01/21 09:16:55;;;;;;;3.90;2.15;;;17.90;52.40;;;;;;4939367;29;20197;-84
2024/01/21 09:19:35;;;;;;;3.10;2.38;;;17.90;52.10;;;;;;4927746;29;20186;-83
2024/01/21 10:03:47;;;;;;;2.35;2.00;;;18.20;53.10;;;;;;4951724;29;20234;-82
2024/01/21 11:04:11;;;;;;;4.40;2.22;;;18.50;53.40;;;;;;5194786;23;20245;-83
2024/01/21 11:07:25;;;;;;;;;;;;;;;;;;;;;
2024/01/21 11:24:58;;;;;;;7.55;2.15;;;18.50;53.50;;;;;;4283979;27;20213;-82
2024/01/21 11:28:17;;;;;;;6.38;2.00;;;18.60;53.90;;;;;;4902655;29;20178;-82
2024/01/21 15:15:03;;;;;;;5.60;3.33;;;19.40;54.10;;;;;;5861773;23;20199;-82
2024/01/21 15:17:35;;;;;;;10.75;3.33;;;19.30;54.20;;;;;;4898705;29;20178;-80
2024/01/21 15:20:07;;;;;;;10.88;3.47;;;19.30;54.50;;;;;;4912169;29;20225;-80
2024/01/21 15:22:42;;;;;;;10.05;3.90;;;19.30;54.90;;;;;;4906593;29;20235;-83
2024/01/21 15:25:12;;;;;;;8.38;3.70;;;19.20;54.60;;;;;;4848286;29;20193;-83
2024/01/21 15:27:47;;;;;;;12.77;3.50;;;19.20;54.50;;;;;;4819703;29;20213;-81
2024/01/21 15:30:42;;;;;;;8.88;3.65;;;19.30;54.50;;;;;;4831879;29;20256;-83
2024/01/21 15:33:10;;;;;;;10.82;4.10;;;19.30;54.50;;;;;;4864119;29;20200;-83
2024/01/21 15:35:58;;;;;;;5.72;3.47;;;19.30;54.30;;;;;;4851796;29;20669;-83
2024/01/21 15:40:14;;;;;;;7.95;3.30;;;19.20;54.30;;;;;;4858904;29;20200;-80
2024/01/21 15:42:20;;;;;;;9.02;4.05;;;19.30;53.50;;;;;;4865398;29;20200;-84
2024/01/21 15:44:47;;;;;;;10.40;3.88;;;19.30;54.00;;;;;;4848527;29;20221;-83
2024/01/21 15:47:16;;;;;;;8.05;3.63;;;19.20;54.10;;;;;;4804913;29;20198;-83
2024/01/21 15:49:42;;;;;;;11.43;3.63;;;19.10;54.30;;;;;;4817778;29;20194;-83
2024/01/21 15:55:46;;;;;;;7.95;4.53;;;19.10;54.60;;;;;;4734182;30;20233;-82
2024/01/21 15:58:20;;;;;;;10.95;4.10;;;19.00;54.90;;;;;;4675303;30;20206;-85
2024/01/21 16:00:49;;;;;;;7.53;3.78;;;19.00;54.30;;;;;;4691201;30;20202;-82
2024/01/21 16:03:16;;;;;;;6.60;3.22;;;18.90;54.50;;;;;;4718274;30;20212;-82
2024/01/21 16:06:34;;;;;;;6.90;3.50;;;18.90;54.60;;;;;;4749717;30;20250;-85
2024/01/21 16:08:59;;;;;;;9.40;3.38;;;18.90;55.40;;;;;;4748000;30;20664;-81
2024/01/21 16:11:32;;;;;;;9.70;3.60;;;18.70;54.60;;;;;;4728366;30;20220;-81
2024/01/21 16:14:02;;;;;;;6.03;3.20;;;18.80;54.30;;;;;;4731771;30;20192;-83
2024/01/21 16:16:28;;;;;;;6.93;3.72;;;18.90;54.00;;;;;;4729891;30;20327;-81
2024/01/21 16:18:54;;;;;;;8.27;3.85;;;18.90;54.40;;;;;;4743310;30;20265;-81
2024/01/21 16:21:20;;;;;;;9.52;3.60;;;18.70;55.30;;;;;;4745679;30;20205;-83
2024/01/21 16:23:47;;;;;;;8.63;3.85;;;18.70;55.40;;;;;;4745938;30;20202;-81
2024/01/21 16:26:13;;;;;;;9.15;3.50;;;18.80;55.70;;;;;;4731473;30;20200;-82
2024/01/21 16:28:39;;;;;;;10.43;3.80;;;18.70;55.50;;;;;;4743777;30;20257;-81
2024/01/21 16:31:06;;;;;;;7.32;3.53;;;18.70;55.40;;;;;;4761813;29;20250;-81
2024/01/21 16:33:33;;;;;;;6.72;3.58;;;18.60;55.40;;;;;;4837697;29;20192;-78
2024/01/21 16:36:00;;;;;;;7.57;3.67;;;18.70;54.90;;;;;;4870745;29;20196;-80
2024/01/21 16:38:25;;;;;;;9.15;3.50;;;18.60;55.20;;;;;;4879475;29;20188;-84
2024/01/21 16:40:52;;;;;;;11.88;3.70;;;18.50;55.20;;;;;;4854142;29;20185;-80
2024/01/21 16:43:25;;;;;;;9.20;3.25;;;18.50;55.20;;;;;;4854200;29;20189;-80
2024/01/21 16:45:51;;;;;;;7.80;3.40;;;18.60;55.40;;;;;;4832502;29;20202;-79
2024/01/21 16:48:19;;;;;;;6.55;3.63;;;18.60;54.80;;;;;;4894031;29;20172;-79
2024/01/21 16:50:45;;;;;;;6.57;3.45;;;18.60;55.00;;;;;;4874280;29;20543;-81
2024/01/21 16:53:17;;;;;;;7.93;3.45;;;18.60;54.60;;;;;;4856448;29;20195;-81
2024/01/21 16:55:45;;;;;;;8.55;3.30;;;18.60;54.20;;;;;;4873147;29;20222;-81
2024/01/21 16:58:13;;;;;;;4.80;3.00;;;18.60;54.80;;;;;;4890590;29;20199;-84
2024/01/21 17:00:51;;;;;;;6.47;3.40;;;18.60;54.70;;;;;;4886590;29;20217;-83
2024/01/21 17:03:26;;;;;;;5.63;3.00;;;18.50;55.10;;;;;;4855207;29;20576;-82
2024/01/21 17:06:02;;;;;;;9.60;3.20;;;18.50;55.40;;;;;;4835493;29;20193;-82
2024/01/21 17:08:35;;;;;;;5.68;3.40;;;18.40;55.40;;;;;;4847744;29;20244;-82
2024/01/21 17:17:18;;;;;;;6.00;3.08;;;18.40;55.20;;;;;;5135643;23;20261;-83
2024/01/21 17:19:54;;;;;;;5.25;3.08;;;18.30;55.50;;;;;;4874729;29;20195;-82
2024/01/21 17:22:32;;;;;;;5.50;3.08;;;18.40;55.60;;;;;;4892221;29;20231;-85
2024/01/21 17:25:00;;;;;;;5.28;2.88;;;18.40;55.30;;;;;;4865648;29;20185;-84
2024/01/21 17:27:30;;;;;;;5.25;2.97;;;18.30;55.20;;;;;;4835802;29;20213;-85
2024/01/21 17:29:56;;;;;;;6.00;2.80;;;18.30;55.20;;;;;;4813560;29;20206;-83
2024/01/21 17:32:31;;;;;;;5.07;2.95;;;18.30;55.00;;;;;;4797145;30;20237;-84
2024/01/21 17:34:58;;;;;;;6.03;3.00;;;18.30;54.80;;;;;;4735822;30;20201;-82
2024/01/21 17:37:24;;;;;;;4.10;2.85;;;18.30;54.30;;;;;;4792962;30;20183;-83
2024/01/21 17:39:50;;;;;;;6.60;2.83;;;18.30;54.00;;;;;;4793646;30;20191;-83
2024/01/21 17:42:21;;;;;;;4.18;2.88;;;18.40;54.30;;;;;;4783475;30;20187;-82
2024/01/21 17:44:49;;;;;;;4.95;2.75;;;18.40;54.70;;;;;;4781339;30;20192;-79
2024/01/21 17:47:16;;;;;;;5.03;2.65;;;18.30;53.90;;;;;;4777949;30;20611;-84
2024/01/21 17:49:44;;;;;;;4.68;2.85;;;18.40;52.80;;;;;;4797420;29;20191;-83
2024/01/21 17:52:11;;;;;;;5.80;2.72;;;18.40;53.80;;;;;;4790647;29;20186;-83
2024/01/21 17:54:39;;;;;;;6.85;2.97;;;18.50;54.20;;;;;;4850821;29;20193;-81
2024/01/21 17:57:10;;;;;;;7.72;2.95;;;18.30;54.60;;;;;;4836237;29;20208;-84
2024/01/21 17:59:36;;;;;;;5.63;2.72;;;18.30;54.70;;;;;;4834660;29;20552;-84
2024/01/21 18:02:02;;;;;;;5.53;3.03;;;18.30;54.60;;;;;;4851835;29;20251;-84
2024/01/21 18:04:29;;;;;;;5.68;2.78;;;18.20;54.80;;;;;;4853327;29;20596;-84
2024/01/21 18:06:57;;;;;;;5.65;2.80;;;18.30;54.90;;;;;;4886049;29;20241;-81
2024/01/21 18:09:28;;;;;;;4.82;2.67;;;18.30;55.00;;;;;;4923796;29;20605;-81
2024/01/21 18:12:07;;;;;;;5.95;3.47;;;18.20;54.90;;;;;;4876312;29;20226;-80
2024/01/21 18:14:33;;;;;;;7.22;3.15;;;18.30;55.00;;;;;;4877562;29;20222;-83
2024/01/21 18:17:00;;;;;;;5.28;2.60;;;18.30;54.60;;;;;;4905643;29;20226;-82
2024/01/21 18:19:26;;;;;;;4.55;2.47;;;18.20;55.00;;;;;;4889626;29;20170;-80
2024/01/21 18:21:52;;;;;;;5.25;2.83;;;18.20;55.00;;;;;;4920218;29;20159;-81
2024/01/21 18:24:18;;;;;;;4.57;2.92;;;18.20;54.90;;;;;;4904056;29;20166;-83
2024/01/21 18:26:44;;;;;;;8.40;2.78;;;18.20;54.50;;;;;;4906538;29;20159;-81
2024/01/21 18:29:09;;;;;;;5.60;2.78;;;18.30;54.60;;;;;;4922298;29;20606;-80
2024/01/21 18:31:36;;;;;;;4.78;2.80;;;18.30;55.00;;;;;;4889642;29;20226;-82
2024/01/21 18:34:03;;;;;;;4.32;2.72;;;18.20;55.40;;;;;;4928794;29;20170;-82
2024/01/21 18:36:33;;;;;;;4.80;2.40;;;18.10;55.50;;;;;;4895396;29;20198;-81
2024/01/21 18:38:58;;;;;;;5.22;3.17;;;18.10;54.90;;;;;;4895784;29;20225;-83
2024/01/21 18:41:24;;;;;;;6.47;2.80;;;18.10;55.00;;;;;;4941645;29;20252;-81
2024/01/21 18:43:50;;;;;;;5.45;3.08;;;18.20;55.30;;;;;;4907473;29;20633;-83
2024/01/21 18:46:16;;;;;;;5.20;2.60;;;18.10;55.20;;;;;;4924225;29;20552;-81
2024/01/21 18:48:42;;;;;;;7.47;2.60;;;18.20;55.00;;;;;;4924560;29;20618;-83
2024/01/21 18:51:11;;;;;;;3.80;2.47;;;18.10;55.60;;;;;;4906876;29;20154;-80
2024/01/21 18:53:39;;;;;;;4.55;2.67;;;18.00;55.30;;;;;;4922993;29;20166;-82
2024/01/21 18:56:05;;;;;;;5.00;2.63;;;18.00;55.60;;;;;;4875484;29;20237;-81
2024/01/21 18:58:33;;;;;;;6.00;2.75;;;18.10;55.60;;;;;;4907348;29;20545;-83
2024/01/21 19:00:59;;;;;;;4.70;2.63;;;18.00;55.60;;;;;;4865193;29;20199;-81
2024/01/21 19:03:30;;;;;;;4.65;2.75;;;18.00;55.70;;;;;;4864512;29;20192;-81
2024/01/21 19:05:56;;;;;;;4.85;2.60;;;18.00;55.40;;;;;;4867459;29;20195;-82
2024/01/21 19:08:23;;;;;;;3.53;2.30;;;18.00;55.30;;;;;;4880936;29;20610;-80
2024/01/21 19:10:54;;;;;;;4.57;2.60;;;18.00;55.40;;;;;;4850176;29;20202;-81
2024/01/21 19:13:19;;;;;;;4.72;2.72;;;18.00;55.80;;;;;;4834633;29;20191;-81
2024/01/21 19:15:45;;;;;;;5.30;2.88;;;18.00;55.70;;;;;;4849245;29;20231;-81
2024/01/21 19:18:14;;;;;;;5.40;2.80;;;18.00;55.70;;;;;;4880618;29;20623;-81
2024/01/21 19:20:44;;;;;;;4.55;2.50;;;17.90;55.80;;;;;;4849652;29;20191;-82
2024/01/21 19:23:10;;;;;;;5.00;2.53;;;18.00;55.70;;;;;;4850299;29;20219;-82
2024/01/21 19:25:36;;;;;;;5.78;2.63;;;17.90;54.80;;;;;;4865027;29;20185;-81
2024/01/21 19:28:04;;;;;;;4.50;2.70;;;18.00;55.40;;;;;;4880319;29;20247;-82
2024/01/21 19:30:35;;;;;;;3.95;2.70;;;17.90;56.20;;;;;;4879733;29;20623;-82
2024/01/21 19:33:01;;;;;;;8.38;2.75;;;18.00;55.60;;;;;;4833432;29;20226;-82
2024/01/21 19:35:28;;;;;;;5.82;2.50;;;17.90;55.60;;;;;;4848960;29;20199;-78
2024/01/21 19:37:53;;;;;;;3.05;2.47;;;17.90;55.90;;;;;;4859944;29;20183;-82
2024/01/21 19:40:22;;;;;;;5.55;2.33;;;17.90;55.70;;;;;;4888340;29;20170;-83
2024/01/21 19:42:49;;;;;;;2.83;2.25;;;17.90;55.60;;;;;;4896108;29;20182;-81
2024/01/21 19:45:15;;;;;;;3.70;2.40;;;17.90;56.10;;;;;;4903050;29;20543;-80
2024/01/21 19:47:44;;;;;;;3.25;2.15;;;17.80;56.00;;;;;;4912363;29;20186;-82
2024/01/21 19:50:09;;;;;;;3.83;2.47;;;17.90;55.70;;;;;;4921780;29;20249;-81
2024/01/21 19:52:37;;;;;;;5.60;2.42;;;17.90;55.50;;;;;;4912226;29;20645;-81
2024/01/21 19:55:10;;;;;;;3.47;2.63;;;17.90;55.70;;;;;;4887178;29;20217;-81
2024/01/21 19:57:36;;;;;;;4.07;2.30;;;17.80;56.00;;;;;;4889541;29;20642;-82
2024/01/21 20:00:06;;;;;;;4.35;2.67;;;17.90;55.40;;;;;;4902696;29;20155;-82
2024/01/21 20:02:31;;;;;;;2.60;2.17;;;17.90;55.70;;;;;;4870529;29;20285;-83
2024/01/21 20:05:00;;;;;;;5.90;2.42;;;17.90;55.60;;;;;;4900731;29;20846;-80
2024/01/21 20:07:29;;;;;;;2.60;2.20;;;17.80;56.20;;;;;;4884645;29;20199;-81
2024/01/21 20:09:57;;;;;;;3.55;2.08;;;17.80;55.70;;;;;;4904459;29;20171;-82
2024/01/21 20:12:23;;;;;;;3.28;2.33;;;17.80;56.00;;;;;;4911769;23;20237;-81
2024/01/21 20:14:55;;;;;;;4.13;2.40;;;17.80;55.80;;;;;;4924338;29;20170;-80
2024/01/21 20:17:22;;;;;;;4.20;2.33;;;17.80;55.80;;;;;;4907842;29;20217;-81
2024/01/21 20:19:47;;;;;;;5.10;2.50;;;17.80;55.90;;;;;;4904273;29;20582;-83
2024/01/21 20:22:13;;;;;;;3.72;2.40;;;17.80;56.80;;;;;;4908749;29;20171;-80
2024/01/21 20:24:39;;;;;;;3.75;2.20;;;17.80;56.20;;;;;;4935369;29;20170;-83
2024/01/21 20:27:07;;;;;;;3.28;1.95;;;17.80;55.90;;;;;;4941313;29;20221;-82
2024/01/21 20:29:33;;;;;;;4.07;2.47;;;17.80;55.60;;;;;;4905589;29;20170;-82
2024/01/21 20:31:59;;;;;;;4.28;2.25;;;17.80;56.20;;;;;;4917210;29;20181;-83
2024/01/21 20:34:25;;;;;;;4.38;2.38;;;17.70;55.80;;;;;;4904894;29;20230;-83
2024/01/21 20:36:56;;;;;;;3.22;2.38;;;17.70;56.10;;;;;;4923280;29;20227;-81
2024/01/21 20:39:25;;;;;;;3.47;2.30;;;17.70;55.70;;;;;;4907387;29;20190;-82
2024/01/21 20:41:51;;;;;;;3.55;2.30;;;17.80;55.80;;;;;;4890371;29;20702;-80
2024/01/21 20:46:43;;;;;;;2.90;2.10;;;17.80;56.20;;;;;;4849642;23;20261;-81
2024/01/21 20:49:09;;;;;;;3.13;2.30;;;17.80;56.40;;;;;;4887635;29;20230;-81
2024/01/21 20:51:38;;;;;;;3.63;1.90;;;17.70;56.30;;;;;;4919860;29;20189;-84
2024/01/21 20:54:04;;;;;;;2.72;1.98;;;17.70;56.80;;;;;;4895361;23;20781;-83
2024/01/21 20:56:29;;;;;;;3.83;2.38;;;17.70;56.30;;;;;;4923688;23;20324;-82
2024/01/21 20:58:55;;;;;;;2.88;2.05;;;17.70;56.40;;;;;;4903773;29;20171;-84
2024/01/21 21:01:22;;;;;;;5.15;2.30;;;17.70;56.30;;;;;;4886189;29;20635;-82
2024/01/21 21:03:49;;;;;;;3.97;2.28;;;17.70;56.20;;;;;;4886271;29;20152;-81
2024/01/21 21:06:14;;;;;;;3.20;2.13;;;17.70;56.20;;;;;;4891848;29;20191;-82
2024/01/21 21:08:43;;;;;;;2.92;2.30;;;17.60;55.80;;;;;;4887538;29;20182;-81
2024/01/21 21:11:14;;;;;;;2.97;2.17;;;17.70;55.80;;;;;;4889547;29;20191;-81
2024/01/21 21:13:41;;;;;;;4.22;2.42;;;17.70;55.80;;;;;;4900821;29;20605;-81
2024/01/21 21:16:07;;;;;;;2.83;2.15;;;17.70;56.30;;;;;;4906982;29;20195;-80
2024/01/21 21:18:33;;;;;;;5.03;2.05;;;17.70;56.20;;;;;;4904129;29;20170;-82
2024/01/21 21:21:02;;;;;;;3.42;2.28;;;17.70;56.30;;;;;;4903734;29;20187;-81
2024/01/21 21:23:32;;;;;;;3.30;2.28;;;17.60;56.40;;;;;;4889654;29;20173;-81
2024/01/21 21:25:58;;;;;;;2.83;2.00;;;17.60;56.50;;;;;;4873378;29;20190;-82
2024/01/21 21:28:23;;;;;;;3.25;2.28;;;17.60;56.60;;;;;;4903128;29;20326;-82
2024/01/21 21:30:53;;;;;;;2.88;2.30;;;17.60;56.50;;;;;;4854747;29;20163;-82
2024/01/21 21:33:26;;;;;;;3.10;2.17;;;17.60;56.60;;;;;;4873112;29;20669;-80
2024/01/21 21:35:51;;;;;;;2.33;2.10;;;17.60;56.40;;;;;;4857069;29;20224;-83
2024/01/21 21:38:18;;;;;;;2.38;2.00;;;17.60;56.50;;;;;;4901061;29;20238;-81
2024/01/21 21:40:44;;;;;;;2.63;2.05;;;17.60;56.50;;;;;;4916828;29;20186;-80
2024/01/21 21:43:12;;;;;;;3.05;2.00;;;17.60;56.50;;;;;;4865372;29;20252;-81
2024/01/21 21:45:40;;;;;;;3.40;2.28;;;17.60;56.60;;;;;;4843744;29;20191;-83
2024/01/21 21:48:11;;;;;;;3.00;2.33;;;17.60;56.40;;;;;;4890850;29;20701;-80
2024/01/21 21:50:37;;;;;;;2.85;2.10;;;17.50;56.80;;;;;;4852397;29;20274;-82
2024/01/21 21:53:05;;;;;;;3.58;2.42;;;17.60;56.80;;;;;;4871164;29;20315;-83
2024/01/21 21:55:31;;;;;;;2.83;1.90;;;17.50;56.90;;;;;;4885812;29;20183;-82
2024/01/21 22:00:24;;;;;;;2.30;2.10;;;17.50;56.80;;;;;;4939035;23;20638;-83
2024/01/21 22:02:54;;;;;;;2.30;2.10;;;17.50;56.90;;;;;;4919870;29;20159;-83
2024/01/21 22:05:20;;;;;;;3.60;2.33;;;17.50;57.50;;;;;;4871784;29;20209;-81
2024/01/21 22:07:46;;;;;;;2.78;2.17;;;17.50;56.70;;;;;;4897402;29;20634;-81
2024/01/21 22:10:13;;;;;;;2.42;2.00;;;17.50;56.80;;;;;;4920774;29;20182;-80
2024/01/21 22:12:40;;;;;;;2.97;2.38;;;17.50;56.90;;;;;;4929473;29;20701;-80
2024/01/21 22:15:10;;;;;;;3.00;2.08;;;17.50;56.80;;;;;;4906912;29;20182;-82
2024/01/21 22:17:40;;;;;;;3.00;2.10;;;17.50;56.50;;;;;;4889046;29;20222;-81
2024/01/21 22:20:07;;;;;;;3.42;2.10;;;17.50;56.80;;;;;;4888554;29;20190;-83
2024/01/21 22:22:33;;;;;;;2.85;2.10;;;17.50;57.00;;;;;;4889945;29;20170;-81
2024/01/21 22:24:59;;;;;;;3.50;2.10;;;17.50;56.70;;;;;;4903209;29;20178;-83
2024/01/21 22:27:25;;;;;;;3.28;2.28;;;17.50;56.70;;;;;;4901691;29;20234;-82
2024/01/21 22:29:51;;;;;;;2.85;1.98;;;17.50;56.90;;;;;;4888023;29;20645;-79
2024/01/21 22:32:17;;;;;;;3.13;2.00;;;17.50;56.60;;;;;;4921712;29;20217;-81
2024/01/21 22:34:43;;;;;;;3.85;2.20;;;17.50;56.60;;;;;;4906435;29;20162;-80
2024/01/21 22:37:09;;;;;;;2.13;1.90;;;17.50;56.60;;;;;;4939014;29;20691;-83
2024/01/21 22:39:35;;;;;;;2.58;2.15;;;17.50;56.80;;;;;;4921467;29;20633;-80
2024/01/21 22:42:01;;;;;;;2.45;2.20;;;17.50;57.10;;;;;;4939166;29;20185;-80
2024/01/21 22:44:27;;;;;;;3.58;2.08;;;17.40;56.80;;;;;;4924319;29;20182;-83
2024/01/21 22:46:53;;;;;;;3.85;2.25;;;17.40;56.70;;;;;;4903302;29;20591;-81
2024/01/21 22:49:19;;;;;;;2.03;1.80;;;17.40;56.90;;;;;;4902295;29;20185;-80
2024/01/21 22:51:45;;;;;;;3.80;1.92;;;17.40;56.70;;;;;;4905621;29;20166;-81
2024/01/21 22:54:10;;;;;;;2.42;2.03;;;17.40;56.80;;;;;;4921020;29;20504;-82
2024/01/21 22:56:36;;;;;;;3.03;2.00;;;17.40;56.80;;;;;;4920578;29;20202;-82
2024/01/21 22:59:02;;;;;;;4.15;2.30;;;17.40;57.00;;;;;;4918388;29;20689;-84
2024/01/21 23:01:32;;;;;;;2.75;2.22;;;17.40;56.90;;;;;;4886420;29;20180;-82
2024/01/21 23:03:57;;;;;;;4.15;2.33;;;17.40;56.80;;;;;;4864490;29;20291;-82
2024/01/21 23:06:25;;;;;;;2.33;1.67;;;17.40;56.80;;;;;;4901092;29;20217;-82
2024/01/21 23:08:51;;;;;;;4.25;2.00;;;17.30;56.70;;;;;;4901764;29;20246;-81
2024/01/21 23:11:17;;;;;;;2.22;1.92;;;17.40;56.70;;;;;;4917637;29;20623;-80
2024/01/21 23:13:43;;;;;;;2.20;2.00;;;17.40;56.80;;;;;;4944999;23;20724;-81
2024/01/21 23:16:09;;;;;;;3.47;2.20;;;17.40;56.80;;;;;;4920709;29;20193;-82
2024/01/21 23:18:36;;;;;;;3.22;1.92;;;17.40;56.80;;;;;;4921263;29;20205;-81
2024/01/21 23:21:02;;;;;;;3.35;2.17;;;17.40;56.80;;;;;;4904931;29;20180;-81
2024/01/21 23:23:28;;;;;;;2.90;2.20;;;17.40;56.70;;;;;;4920513;29;20181;-82
2024/01/21 23:26:14;;;;;;;2.88;2.17;;;17.40;56.70;;;;;;4996641;23;20236;-83
2024/01/21 23:28:40;;;;;;;3.22;2.20;;;17.40;56.40;;;;;;4915807;29;20250;-81
2024/01/21 23:31:05;;;;;;;3.40;2.08;;;17.40;56.80;;;;;;4901415;29;20314;-83
2024/01/21 23:33:31;;;;;;;2.20;1.90;;;17.40;56.80;;;;;;4886378;29;20651;-80
2024/01/21 23:35:57;;;;;;;3.15;2.13;;;17.40;56.90;;;;;;4898608;29;20223;-82
2024/01/21 23:38:25;;;;;;;2.17;1.90;;;17.30;57.00;;;;;;4882720;29;20166;-81
2024/01/21 23:40:51;;;;;;;4.10;2.15;;;17.30;56.90;;;;;;4852422;29;20263;-81
2024/01/21 23:43:17;;;;;;;2.70;2.20;;;17.40;57.00;;;;;;4878375;29;20620;-81
2024/01/21 23:45:43;;;;;;;3.45;2.15;;;17.30;56.80;;;;;;4922698;29;20641;-81
2024/01/21 23:48:09;;;;;;;2.17;1.90;;;17.30;56.70;;;;;;4924280;29;20170;-80
2024/01/21 23:50:35;;;;;;;3.92;2.17;;;17.30;56.70;;;;;;4906746;29;20166;-81
2024/01/21 23:53:01;;;;;;;4.15;2.20;;;17.40;56.90;;;;;;4902674;29;20175;-80
2024/01/21 23:55:30;;;;;;;3.65;2.30;;;17.30;56.90;;;;;;4901727;29;20166;-83
2024/01/21 23:57:56;;;;;;;2.55;2.00;;;17.30;56.80;;;;;;4901580;29;20170;-80
